Ktima, Cyprus
Current Conditions -  °F | °C
As of 1:30 PM on Sunday 21 Dec 2014 (Local Time) from LCPH Reporting Station
Few Clouds Few Clouds  
Wind Chill: 66°   Ceiling: Unl
Heat Index: 66°   Visibility: 6mi
Dew Point: 54°   Wind: 9mph
Humidity: 64%   Direction: 270°W
Pressure: 30.12"   Gusts: NA
Location:  34.76°N, 32.42°E
Report Text: LCPH 211030Z 27008KT 9999 FEW030 19/12 Q1020
Loading
Personal Weather Stations






























Interactive Weather Map New forecast layout! Learn more

10-Day Weather Forecast

Advertisements
Track Severe Weather on mobile